Latest Weather Observations for Cape Nelson

IDV60801

Issued at 9:31 pm EST Saturday 28 May 2016 (issued every 30 minutes, with the page automatically refreshed every 10 minutes)

About weather observations | Map of weather stations | Latest weather observations for VIC | Other Formats
Station Details ID: 090184 Name: CAPE NELSON LIGHTHOUSE Lat: -38.43 Lon: 141.54 Height: 45.4 m
Data from the previous 72 hours. | See also: Recent months at Cape Nelson
Date/Time
EST
Temp
°C
App
Temp
°C
Dew
Point
Rel
Hum
%
Delta-T
°C
Wind Press
QNH
hPa
Press
MSL
hPa
Rain
since 9 am
mm
Dir
 
Spd
km/h
Gust
km/h
Spd
kts
Gust
kts
28/09:30pm 10.7 6.2 4.4 65 2.8 S 17 26 9 14 1018.7 1018.7 0.2
28/09:00pm 10.8 7.5 4.7 66 2.7 S 11 22 6 12 1018.6 1018.6 0.2
28/08:30pm 10.8 7.2 4.9 67 2.7 S 13 22 7 12 1018.5 1018.5 0.2
28/08:00pm 10.8 6.0 4.9 67 2.7 SSW 19 33 10 18 1018.3 1018.3 0.2
28/07:30pm 10.8 5.8 4.5 65 2.8 S 20 41 11 22 1018.1 1018.1 0.2
28/07:00pm 10.8 6.0 4.5 65 2.8 S 19 30 10 16 1017.9 1017.9 0.2
28/06:30pm 10.6 7.2 4.1 64 2.9 NE 11 20 6 11 1017.7 1017.7 0.2
28/06:00pm 10.8 6.3 4.0 63 3.0 S 17 32 9 17 1017.3 1017.3 0.2
28/05:30pm 11.0 7.3 4.7 65 2.9 NE 13 20 7 11 1016.9 1016.9 0.2
28/05:00pm 11.0 7.2 4.0 62 3.1 ESE 13 24 7 13 1016.8 1016.8 0.2
28/04:30pm 11.3 7.7 5.0 65 2.9 ENE 13 22 7 12 1016.4 1016.4 0.2
28/04:00pm 11.6 6.6 4.8 63 3.1 S 20 33 11 18 1016.3 1016.3 0.2
28/03:30pm 11.5 7.6 5.4 66 2.8 ESE 15 26 8 14 1015.9 1015.9 0.2
28/03:00pm 11.5 6.9 5.8 68 2.7 S 19 33 10 18 1015.6 1015.6 0.2
28/02:30pm 11.7 6.3 6.4 70 2.5 S 24 33 13 18 1015.4 1015.4 0.2
28/02:00pm 10.8 7.2 6.7 76 1.9 SSE 15 28 8 15 1015.4 1015.4 0.2
28/01:30pm 11.5 6.4 6.0 69 2.6 S 22 33 12 18 1015.3 1015.3 0.0
28/01:00pm 11.8 6.0 4.5 61 3.3 S 24 35 13 19 1015.4 1015.4 0.0
28/12:30pm 11.9 6.1 4.4 60 3.4 S 24 35 13 19 1015.4 1015.4 0.0
28/12:00pm 11.9 5.7 4.2 59 3.5 S 26 41 14 22 1015.4 1015.4 0.0
28/11:30am 12.3 5.4 4.5 59 3.6 S 30 39 16 21 1015.4 1015.4 0.0
28/11:00am 12.6 5.3 4.6 58 3.7 S 32 43 17 23 1015.2 1015.2 0.0
28/10:30am 12.6 5.6 4.1 56 3.8 S 30 41 16 22 1015.0 1015.0 0.0
28/10:00am 12.6 5.7 4.8 59 3.6 S 30 43 16 23 1014.6 1014.6 0.0
28/09:30am 12.6 6.1 6.6 67 2.9 S 30 39 16 21 1014.3 1014.3 0.0
28/09:00am 12.2 5.3 6.5 68 2.7 SSE 32 43 17 23 1014.1 1014.1 0.8
28/08:30am 12.0 5.2 7.5 74 2.2 S 33 44 18 24 1013.9 1013.9 0.8
28/08:00am 11.7 5.6 6.6 71 2.4 SSE 28 39 15 21 1013.6 1013.6 0.8
28/07:30am 12.1 5.1 7.0 71 2.5 SSE 33 44 18 24 1013.2 1013.2 0.8
28/07:00am 12.0 5.6 6.9 71 2.4 S 30 43 16 23 1012.7 1012.7 0.8
28/06:30am 12.0 5.2 7.5 74 2.2 S 33 44 18 24 1012.3 1012.3 0.8
28/06:10am 12.3 5.4 6.4 67 2.8 SSE 32 52 17 28 1012.0 1012.0 0.8
28/06:00am 12.2 5.0 4.9 61 3.4 S 32 43 17 23 1012.0 1012.0 0.8
28/05:30am 12.3 4.3 5.7 64 3.1 SSE 37 46 20 25 1011.6 1011.6 0.8
28/05:00am 12.5 5.3 5.9 64 3.1 SSE 33 46 18 25 1011.2 1011.2 0.6
28/04:30am 12.6 5.2 6.6 67 2.9 SSE 35 46 19 25 1011.0 1011.0 0.6
28/04:00am 12.2 4.5 7.1 71 2.5 SSE 37 46 20 25 1010.7 1010.7 0.6
28/03:30am 12.1 4.8 7.4 73 2.3 SSE 35 50 19 27 1010.6 1010.6 0.6
28/03:00am 12.6 5.8 7.5 71 2.5 SSE 33 44 18 24 1010.4 1010.4 0.6
28/02:30am 12.4 5.7 7.5 72 2.4 SSE 32 41 17 22 1010.3 1010.3 0.6
28/02:00am 12.3 5.5 6.8 69 2.6 SE 32 39 17 21 1010.0 1010.0 0.6
28/01:30am 11.8 4.7 8.1 78 1.8 SSE 35 46 19 25 1009.7 1009.7 0.6
28/01:00am 12.5 5.3 7.8 73 2.3 SSE 35 46 19 25 1009.5 1009.5 0.4
28/12:30am 12.9 6.8 6.5 65 3.1 SE 28 37 15 20 1009.3 1009.3 0.4
28/12:00am 13.1 7.8 6.9 66 3.0 SE 24 39 13 21 1009.1 1009.1 0.4
 
Date/Time
EST
Temp
°C
App
Temp
°C
Dew
Point
Rel
Hum
%
Delta-T
°C
Wind Press
QNH
hPa
Press
MSL
hPa
Rain
since 9 am
mm
Dir
 
Spd
km/h
Gust
km/h
Spd
kts
Gust
kts
27/11:30pm 13.3 8.4 7.1 66 3.0 ESE 22 41 12 22 1008.8 1008.8 0.4
27/11:00pm 12.4 6.7 6.7 68 2.7 ESE 26 44 14 24 1008.6 1008.6 0.4
27/10:30pm 13.0 6.2 6.8 66 3.0 E 32 43 17 23 1008.4 1008.4 0.4
27/10:00pm 13.0 7.4 7.2 68 2.8 ESE 26 41 14 22 1008.3 1008.3 0.4
27/09:30pm 13.1 6.3 7.5 69 2.7 E 33 44 18 24 1008.0 1007.9 0.4
27/09:00pm 12.9 5.7 7.6 70 2.6 E 35 44 19 24 1007.6 1007.5 0.4
27/08:30pm 13.0 6.6 8.7 75 2.2 E 32 43 17 23 1007.2 1007.1 0.4
27/08:00pm 11.7 6.4 8.4 80 1.6 ENE 26 35 14 19 1006.9 1006.8 0.4
27/07:30pm 11.2 5.7 7.7 79 1.7 E 26 33 14 18 1006.7 1006.6 0.4
27/07:00pm 12.5 6.7 8.0 74 2.2 E 28 39 15 21 1006.3 1006.2 0.2
27/06:30pm 12.5 6.3 7.8 73 2.3 E 30 43 16 23 1006.0 1005.9 0.2
27/06:00pm 12.5 8.3 8.2 75 2.1 E 20 33 11 18 1005.8 1005.7 0.2
27/05:30pm 12.2 8.1 7.9 75 2.1 ENE 19 28 10 15 1005.5 1005.4 0.2
27/05:00pm 12.4 8.5 6.9 69 2.7 ENE 17 24 9 13 1005.3 1005.2 0.2
27/04:30pm 12.2 8.3 7.3 72 2.4 ENE 17 22 9 12 1005.2 1005.1 0.0
27/04:00pm 12.1 7.8 7.2 72 2.4 ENE 19 26 10 14 1005.1 1005.0 0.0
27/03:30pm 11.9 8.3 8.4 79 1.7 NE 17 20 9 11 1005.0 1004.9 0.0
27/03:00pm 12.0 8.9 8.7 80 1.7 NE 15 22 8 12 1004.9 1004.8 0.0
27/02:30pm 12.7 9.0 8.0 73 2.3 NE 17 24 9 13 1004.9 1004.8 0.0
27/02:00pm 13.1 9.1 8.4 73 2.4 NNE 19 28 10 15 1005.0 1004.9 0.0
27/01:30pm 14.3 10.4 8.7 69 2.8 NNE 19 26 10 14 1005.1 1005.0 0.0
27/01:00pm 13.0 9.6 9.1 77 2.0 NE 17 24 9 13 1005.4 1005.3 0.0
27/12:30pm 12.8 9.8 9.3 79 1.8 NE 15 20 8 11 1005.6 1005.5 0.0
27/12:00pm 12.2 9.1 8.7 79 1.8 NNE 15 20 8 11 1005.9 1005.8 0.0
27/11:30am 11.8 8.2 8.5 80 1.6 N 17 24 9 13 1006.7 1006.6 0.0
27/11:00am 11.6 8.7 8.1 79 1.7 N 13 20 7 11 1007.2 1007.1 0.0
27/10:30am 11.3 9.2 8.2 81 1.5 N 9 15 5 8 1007.6 1007.5 0.0
27/10:00am 11.0 8.0 7.9 81 1.5 N 13 17 7 9 1007.7 1007.6 0.0
27/09:30am 10.3 7.3 7.5 83 1.3 N 13 17 7 9 1007.7 1007.6 0.0
27/09:00am 9.3 6.1 6.7 84 1.2 N 13 17 7 9 1007.6 1007.5 0.4
27/08:30am 9.0 5.4 6.8 86 1.0 N 15 19 8 10 1007.6 1007.5 0.4
27/08:00am 8.8 5.5 6.6 86 1.0 N 13 15 7 8 1007.5 1007.4 0.4
27/07:30am 9.0 5.3 6.4 84 1.2 N 15 19 8 10 1007.5 1007.4 0.4
27/07:00am 9.2 6.2 5.8 79 1.6 N 11 15 6 8 1007.2 1007.1 0.4
27/06:30am 10.3 8.1 6.1 75 2.0 N 7 11 4 6 1007.2 1007.1 0.4
27/06:00am 11.2 9.1 6.5 73 2.2 NNE 7 46 4 25 1007.4 1007.3 0.4
27/05:30am 11.8 9.0 6.9 72 2.3 NNW 11 24 6 13 1007.5 1007.4 0.4
27/05:00am 11.7 9.5 6.4 70 2.5 SE 7 17 4 9 1007.4 1007.3 0.4
27/04:30am 11.7 9.2 6.6 71 2.4 ESE 9 15 5 8 1007.5 1007.4 0.4
27/04:00am 11.6 8.7 6.7 72 2.3 NE 11 17 6 9 1007.5 1007.4 0.4
27/03:30am 11.8 8.9 6.7 71 2.4 NE 11 19 6 10 1007.7 1007.6 0.4
27/03:00am 11.6 8.7 6.7 72 2.3 NE 11 20 6 11 1007.8 1007.7 0.4
27/02:30am 11.9 8.7 7.0 72 2.4 WNW 13 22 7 12 1007.9 1007.8 0.4
27/02:00am 11.8 8.6 6.7 71 2.4 N 13 26 7 14 1007.8 1007.7 0.4
27/01:30am 11.8 8.6 6.9 72 2.3 NNE 13 20 7 11 1007.9 1007.8 0.4
27/01:00am 11.9 8.7 7.0 72 2.4 N 13 22 7 12 1007.9 1007.8 0.4
27/12:30am 12.0 8.9 7.1 72 2.4 NNW 13 24 7 13 1008.1 1008.1 0.4
27/12:00am 12.2 9.2 7.5 73 2.3 WNW 13 24 7 13 1008.3 1008.3 0.4
 
Date/Time
EST
Temp
°C
App
Temp
°C
Dew
Point
Rel
Hum
%
Delta-T
°C
Wind Press
QNH
hPa
Press
MSL
hPa
Rain
since 9 am
mm
Dir
 
Spd
km/h
Gust
km/h
Spd
kts
Gust
kts
26/11:30pm 12.2 9.1 7.3 72 2.4 N 13 20 7 11 1008.3 1008.3 0.4
26/11:00pm 12.2 8.3 7.3 72 2.4 NW 17 28 9 15 1008.3 1008.3 0.4
26/10:30pm 12.3 8.4 7.2 71 2.5 WNW 17 26 9 14 1008.5 1008.5 0.4
26/10:00pm 12.1 8.9 7.0 71 2.5 NNW 13 20 7 11 1008.6 1008.6 0.4
26/09:30pm 12.0 8.8 6.9 71 2.4 N 13 20 7 11 1008.6 1008.6 0.4
26/09:00pm 12.2 8.2 6.7 69 2.6 NW 17 24 9 13 1008.3 1008.3 0.4
26/08:30pm 11.9 9.3 7.6 75 2.1 N 11 20 6 11 1008.2 1008.2 0.4
26/08:00pm 11.6 8.2 7.5 76 2.0 N 15 24 8 13 1008.1 1008.1 0.4
26/07:30pm 12.6 10.2 7.1 69 2.7 NE 9 17 5 9 1008.0 1007.9 0.0
26/07:00pm 12.5 10.0 6.5 67 2.9 ENE 9 19 5 10 1007.8 1007.7 0.0
26/06:30pm 12.5 9.2 6.3 66 2.9 NNE 13 19 7 10 1007.6 1007.5 0.0
26/06:00pm 12.3 9.0 6.6 68 2.7 ENE 13 22 7 12 1007.3 1007.2 0.0
26/05:30pm 12.2 9.1 5.6 64 3.1 NE 11 19 6 10 1007.0 1006.9 0.0
26/05:00pm 12.2 9.2 6.0 66 2.9 NE 11 20 6 11 1006.8 1006.7 0.0
26/04:30pm 12.4 9.1 6.5 67 2.8 NE 13 22 7 12 1006.7 1006.6 0.0
26/04:00pm 12.8 9.5 6.4 65 3.1 E 13 20 7 11 1006.6 1006.5 0.0
26/03:30pm 13.0 9.4 5.2 59 3.6 NE 13 20 7 11 1006.4 1006.3 0.0
26/03:00pm 13.9 10.7 7.0 63 3.4 ENE 13 22 7 12 1006.1 1006.0 0.0
26/02:30pm 13.7 10.5 7.0 64 3.3 E 13 20 7 11 1006.1 1006.0 0.0
26/02:00pm 13.7 10.4 6.6 62 3.4 ENE 13 22 7 12 1006.0 1005.9 0.0
26/01:30pm 14.2 10.6 6.8 61 3.6 NE 15 22 8 12 1005.9 1005.8 0.0
26/01:00pm 13.9 9.9 6.5 61 3.6 ESE 17 32 9 17 1006.0 1005.9 0.0
26/12:30pm 13.7 10.3 7.7 67 3.0 SE 15 24 8 13 1005.9 1005.8 0.0
26/12:00pm 13.7 9.4 7.0 64 3.3 SSE 19 32 10 17 1006.0 1005.9 0.0
26/11:30am 13.4 9.0 6.7 64 3.2 S 19 35 10 19 1006.1 1006.0 0.0
26/11:00am 13.5 9.7 7.5 67 3.0 E 17 28 9 15 1006.1 1006.0 0.0
26/10:30am 13.1 8.6 7.1 67 2.9 SSE 20 33 11 18 1006.2 1006.1 0.0
26/10:00am 13.4 9.6 7.4 67 2.9 SSE 17 28 9 15 1006.0 1005.9 0.0
26/09:30am 12.5 8.8 7.8 73 2.3 SE 17 28 9 15 1005.8 1005.7 0.0
26/09:00am 12.9 9.3 8.4 74 2.2 SE 17 30 9 16 1005.6 1005.5 13.0
26/08:30am 12.6 8.8 7.5 71 2.5 SE 17 35 9 19 1005.4 1005.3 13.0
26/08:00am 12.8 9.6 8.5 75 2.2 SSE 15 26 8 14 1005.0 1004.9 13.0
26/07:30am 12.5 6.8 8.2 75 2.1 S 28 37 15 20 1005.0 1004.9 13.0
26/07:00am 12.4 9.4 9.2 81 1.6 S 15 24 8 13 1004.8 1004.7 13.0
26/06:30am 11.4 9.8 8.6 83 1.4 WNW 7 19 4 10 1004.8 1004.7 13.0
26/06:00am 11.4 7.3 8.6 83 1.4 S 20 28 11 15 1004.9 1004.8 12.8
26/05:37am 11.8 6.5 8.5 80 1.6 S 26 46 14 25 1004.8 1004.7 12.4
26/05:30am 12.5 9.3 8.4 76 2.0 S 15 24 8 13 1004.8 1004.7 12.4
26/05:00am 11.9 8.0 7.2 73 2.3 SE 17 30 9 16 1004.5 1004.4 12.4
26/04:30am 12.0 7.4 8.3 78 1.8 SE 22 41 12 22 1004.0 1004.0 12.4
26/04:00am 12.8 7.9 8.3 74 2.2 S 24 33 13 18 1004.4 1004.3 12.4
26/03:30am 12.7 8.5 9.9 83 1.4 S 22 28 12 15 1004.3 1004.2 12.4
26/03:00am 12.5 9.0 10.9 90 0.8 S 20 28 11 15 1004.5 1004.4 12.4
26/02:30am 12.1 11.4 11.3 95 0.4 SW 6 11 3 6 1004.4 1004.3 12.4
26/02:00am 11.5 11.4 10.9 96 0.3 NW 2 7 1 4 1004.5 1004.4 12.4
26/01:30am 11.6 10.2 11.0 96 0.3 NW 9 11 5 6 1004.8 1004.7 12.4
26/01:00am 11.5 10.1 10.9 96 0.3 NNW 9 11 5 6 1005.1 1005.0 12.4
26/12:30am 11.4 10.0 10.8 96 0.3 NW 9 11 5 6 1005.1 1005.0 12.2
26/12:00am 11.4 10.0 10.8 96 0.3 NW 9 11 5 6 1005.1 1005.0 12.2
 
Date/Time
EST
Temp
°C
App
Temp
°C
Dew
Point
Rel
Hum
%
Delta-T
°C
Wind Press
QNH
hPa
Press
MSL
hPa
Rain
since 9 am
mm
Dir
 
Spd
km/h
Gust
km/h
Spd
kts
Gust
kts
25/11:30pm 11.3 9.1 10.7 96 0.3 NW 13 19 7 10 1005.3 1005.2 11.8
25/11:00pm 11.3 8.3 10.7 96 0.3 NNW 17 22 9 12 1005.3 1005.2 11.6
25/10:30pm 11.3 7.9 10.7 96 0.3 NNW 19 28 10 15 1005.9 1005.8 11.6
25/10:00pm 11.2 8.2 10.6 96 0.3 NNW 17 22 9 12 1005.8 1005.7 11.6

Other Formats:

Comma delimited format used in spreadsheet applications
http://www.bom.gov.au/fwo/IDV60801/IDV60801.94826.axf

JavaScript Object Notation format (JSON) in row-major order
http://www.bom.gov.au/fwo/IDV60801/IDV60801.94826.json